createdAt,value
2023-04-21T00:01:22.367Z,69.15
2023-04-21T00:03:50.775Z,69.07
2023-04-21T00:06:22.659Z,68.60
2023-04-21T00:08:50.746Z,68.94
2023-04-21T00:11:18.162Z,68.83
2023-04-21T00:13:45.283Z,68.86
2023-04-21T00:16:12.361Z,69.30
2023-04-21T00:18:39.062Z,69.05
2023-04-21T00:21:06.205Z,69.15
2023-04-21T00:23:32.964Z,69.69
2023-04-21T00:26:02.607Z,69.58
2023-04-21T00:28:29.586Z,69.89
2023-04-21T00:30:57.596Z,69.03
2023-04-21T00:33:25.797Z,69.29
2023-04-21T00:35:54.418Z,69.29
2023-04-21T00:38:21.073Z,68.52
2023-04-21T00:40:47.774Z,69.58
2023-04-21T00:43:14.395Z,68.99
2023-04-21T00:45:41.036Z,69.37
2023-04-21T00:48:07.762Z,69.53
2023-04-21T00:50:34.596Z,70.01
2023-04-21T00:53:01.339Z,70.52
2023-04-21T00:55:29.000Z,70.48
2023-04-21T00:57:56.701Z,70.69
2023-04-21T01:00:27.884Z,69.41
2023-04-21T01:02:55.470Z,70.31
2023-04-21T01:05:23.616Z,69.65
2023-04-21T01:07:50.514Z,69.57
2023-04-21T01:10:17.185Z,70.22
2023-04-21T01:12:46.892Z,70.58
2023-04-21T01:15:15.684Z,70.20
2023-04-21T01:17:42.886Z,70.38
2023-04-21T01:20:13.288Z,70.20
2023-04-21T01:22:47.836Z,70.33
2023-04-21T01:25:15.032Z,70.51
2023-04-21T01:27:41.821Z,69.35
2023-04-21T01:30:09.916Z,69.38
2023-04-21T01:32:37.077Z,69.26
2023-04-21T01:35:07.103Z,70.03
2023-04-21T01:37:34.635Z,69.93
2023-04-21T01:40:07.106Z,69.77
2023-04-21T01:42:36.285Z,70.34
2023-04-21T01:45:03.748Z,71.17
2023-04-21T01:47:31.546Z,71.33
2023-04-21T01:49:58.307Z,71.11
2023-04-21T01:52:25.154Z,71.09
2023-04-21T01:54:54.467Z,70.72
2023-04-21T01:57:21.439Z,70.74
2023-04-21T01:59:49.555Z,70.19
2023-04-21T02:02:16.342Z,70.20
2023-04-21T02:04:42.997Z,70.40
2023-04-21T02:07:09.773Z,69.98
2023-04-21T02:09:36.653Z,69.54
2023-04-21T02:12:03.751Z,69.56
2023-04-21T02:14:30.488Z,69.89
2023-04-21T02:16:57.160Z,69.31
2023-04-21T02:19:24.335Z,69.44
2023-04-21T02:21:51.073Z,69.41
2023-04-21T02:24:17.851Z,70.11
2023-04-21T02:26:45.721Z,69.70
2023-04-21T02:29:12.500Z,69.85
2023-04-21T02:31:53.849Z,70.12
2023-04-21T02:34:24.367Z,70.43
2023-04-21T02:36:50.987Z,70.18
2023-04-21T02:39:19.467Z,70.90
2023-04-21T02:41:46.319Z,70.98
2023-04-21T02:44:12.931Z,70.45
2023-04-21T02:46:43.073Z,70.92
2023-04-21T02:49:10.731Z,69.83
2023-04-21T02:51:37.711Z,70.87
2023-04-21T02:54:05.395Z,70.58
2023-04-21T02:56:34.505Z,70.52
2023-04-21T02:59:01.176Z,70.19
2023-04-21T03:01:27.821Z,71.13
2023-04-21T03:03:54.613Z,70.87
2023-04-21T03:06:21.316Z,70.89
2023-04-21T03:08:49.380Z,70.36
2023-04-21T03:11:16.144Z,71.34
2023-04-21T03:13:42.818Z,70.87
2023-04-21T03:16:09.865Z,71.09
2023-04-21T03:18:36.720Z,71.44
2023-04-21T03:21:03.564Z,71.16
2023-04-21T03:23:30.507Z,71.60
2023-04-21T03:25:57.219Z,71.18
2023-04-21T03:28:23.957Z,71.59
2023-04-21T03:30:51.765Z,72.58
2023-04-21T03:33:18.382Z,72.63
2023-04-21T03:35:45.051Z,73.41
2023-04-21T03:38:11.785Z,73.59
2023-04-21T03:40:38.428Z,73.36
2023-04-21T03:43:05.124Z,73.33
2023-04-21T03:45:35.687Z,73.34
2023-04-21T03:48:02.681Z,72.76
2023-04-21T03:50:29.839Z,73.08
2023-04-21T03:52:56.522Z,73.49
2023-04-21T03:55:23.170Z,73.04
2023-04-21T03:57:49.803Z,72.58
2023-04-21T04:00:19.353Z,72.22
2023-04-21T04:02:46.177Z,71.22
2023-04-21T04:05:13.081Z,70.85
2023-04-21T04:07:42.594Z,71.05
2023-04-21T04:10:09.259Z,70.49
2023-04-21T04:12:38.205Z,69.92
2023-04-21T04:15:05.359Z,70.00
2023-04-21T04:17:32.089Z,69.82
2023-04-21T04:19:58.704Z,69.18
2023-04-21T04:22:25.530Z,69.11
2023-04-21T04:24:53.168Z,69.94
2023-04-21T04:27:21.381Z,69.39
2023-04-21T04:29:49.259Z,69.14
2023-04-21T04:32:16.279Z,69.56
2023-04-21T04:34:43.075Z,68.98
2023-04-21T04:37:11.048Z,68.49
2023-04-21T04:39:37.678Z,68.83
2023-04-21T04:42:08.946Z,68.77
2023-04-21T04:44:36.288Z,68.52
2023-04-21T04:47:04.025Z,68.30
2023-04-21T04:49:30.671Z,68.49
2023-04-21T04:51:57.329Z,68.92
2023-04-21T04:54:25.112Z,69.04
2023-04-21T04:56:51.704Z,68.42
2023-04-21T04:59:18.446Z,69.08
2023-04-21T05:01:45.144Z,68.84
2023-04-21T05:04:16.325Z,68.66
2023-04-21T05:06:43.299Z,68.31
2023-04-21T05:09:10.285Z,67.67
2023-04-21T05:11:36.983Z,68.19
2023-04-21T05:14:03.782Z,67.77
2023-04-21T05:16:30.491Z,67.25
2023-04-21T05:19:01.316Z,67.13
2023-04-21T05:21:28.757Z,66.85
2023-04-21T05:23:56.519Z,65.38
2023-04-21T05:26:24.488Z,64.96
2023-04-21T05:28:51.169Z,63.06
2023-04-21T05:31:17.888Z,63.39
2023-04-21T05:33:44.536Z,62.16
2023-04-21T05:36:11.824Z,61.46
2023-04-21T05:38:38.761Z,60.55
2023-04-21T05:41:05.811Z,59.85
2023-04-21T05:43:33.436Z,59.00
2023-04-21T05:46:08.331Z,57.93
2023-04-21T05:48:35.373Z,57.46
2023-04-21T05:51:13.759Z,56.58
2023-04-21T05:53:41.109Z,55.72
2023-04-21T05:56:11.733Z,54.94
2023-04-21T05:58:39.049Z,53.75
2023-04-21T06:01:09.269Z,52.99
2023-04-21T06:03:36.121Z,52.30
2023-04-21T06:06:05.304Z,51.69
2023-04-21T06:08:32.192Z,50.93
2023-04-21T06:10:58.854Z,49.39
2023-04-21T06:13:27.437Z,49.00
2023-04-21T06:15:54.923Z,48.45
2023-04-21T06:18:22.140Z,46.96
2023-04-21T06:20:53.105Z,46.68
2023-04-21T06:23:20.520Z,45.84
2023-04-21T06:25:47.743Z,45.56
2023-04-21T06:28:14.425Z,44.33
2023-04-21T06:30:41.053Z,45.33
2023-04-21T06:33:07.858Z,45.86
2023-04-21T06:35:35.768Z,45.08
2023-04-21T06:38:02.562Z,45.23
2023-04-21T06:40:29.323Z,45.99
2023-04-21T06:42:55.982Z,46.18
2023-04-21T06:45:23.080Z,46.96
2023-04-21T06:47:49.730Z,45.78
2023-04-21T06:50:16.464Z,45.05
2023-04-21T06:52:43.090Z,44.03
2023-04-21T06:55:09.798Z,44.01
2023-04-21T06:57:36.505Z,44.17
2023-04-21T07:00:05.647Z,43.85
2023-04-21T07:02:32.647Z,42.71
2023-04-21T07:04:59.287Z,42.60
2023-04-21T07:07:25.884Z,42.05
2023-04-21T07:09:52.565Z,42.84
2023-04-21T07:12:19.234Z,41.89
2023-04-21T07:14:45.964Z,42.17
2023-04-21T07:17:12.953Z,42.36
2023-04-21T07:19:40.073Z,41.95
2023-04-21T07:22:06.705Z,42.55
2023-04-21T07:24:35.438Z,42.88
2023-04-21T07:27:04.993Z,42.77
2023-04-21T07:29:31.857Z,42.19
2023-04-21T07:31:58.785Z,41.07
2023-04-21T07:34:25.650Z,41.38
2023-04-21T07:36:52.360Z,41.60
2023-04-21T07:39:19.255Z,43.29
2023-04-21T07:41:46.199Z,41.62
2023-04-21T07:44:12.836Z,40.60
2023-04-21T07:46:39.620Z,38.70
2023-04-21T07:49:06.494Z,37.20
2023-04-21T07:51:33.102Z,35.89
2023-04-21T07:53:59.873Z,35.91
2023-04-21T07:56:26.812Z,34.71
2023-04-21T07:58:53.459Z,34.64
2023-04-21T08:01:20.988Z,35.57
2023-04-21T08:03:49.003Z,35.25
2023-04-21T08:06:15.950Z,34.43
2023-04-21T08:08:44.143Z,32.44
2023-04-21T08:11:32.642Z,32.13
2023-04-21T08:14:00.497Z,30.43
2023-04-21T08:16:32.420Z,30.41
2023-04-21T08:18:59.224Z,29.67
2023-04-21T08:21:25.927Z,28.58
2023-04-21T08:23:52.906Z,28.18
2023-04-21T08:26:21.652Z,27.50
2023-04-21T08:28:51.903Z,27.08
2023-04-21T08:31:19.395Z,27.55
2023-04-21T08:33:57.911Z,26.72
2023-04-21T08:36:29.539Z,26.92
2023-04-21T08:38:57.228Z,26.97
2023-04-21T08:41:24.862Z,26.41
2023-04-21T08:43:51.715Z,25.94
2023-04-21T08:46:18.950Z,25.43
2023-04-21T08:48:47.153Z,24.23
2023-04-21T08:51:20.943Z,23.63
2023-04-21T08:53:47.881Z,23.89
2023-04-21T08:56:14.889Z,24.54
2023-04-21T08:58:42.049Z,24.61
2023-04-21T09:01:09.063Z,24.87
2023-04-21T09:03:36.141Z,23.35
2023-04-21T09:06:05.497Z,22.06
2023-04-21T09:08:33.602Z,21.18
2023-04-21T09:11:01.691Z,20.67
2023-04-21T09:13:36.188Z,20.49
2023-04-21T09:16:16.959Z,21.01
2023-04-21T09:18:44.467Z,21.51
2023-04-21T09:21:15.174Z,20.71
2023-04-21T09:23:49.393Z,20.59
2023-04-21T09:26:18.000Z,21.78
2023-04-21T09:28:46.854Z,22.27
2023-04-21T09:31:21.444Z,21.65
2023-04-21T09:36:22.115Z,20.11
2023-04-21T09:39:15.405Z,20.75
2023-04-21T09:41:43.264Z,21.42
2023-04-21T09:44:09.890Z,20.46
2023-04-21T09:46:37.262Z,21.07
2023-04-21T09:49:05.399Z,21.92
2023-04-21T09:51:56.227Z,20.46
2023-04-21T09:56:54.044Z,21.46
2023-04-21T09:59:26.036Z,21.19
2023-04-21T10:01:55.558Z,20.50
2023-04-21T10:04:24.014Z,21.21
2023-04-21T10:06:51.752Z,20.33
2023-04-21T10:09:22.573Z,20.52
2023-04-21T10:11:49.504Z,20.64
2023-04-21T10:14:16.185Z,20.25
2023-04-21T10:16:43.290Z,20.15
2023-04-21T10:19:27.762Z,19.17
2023-04-21T10:22:00.075Z,19.19
2023-04-21T10:24:30.521Z,19.54
2023-04-21T10:27:02.137Z,20.64
2023-04-21T10:29:40.039Z,20.19
2023-04-21T10:32:11.186Z,19.58
2023-04-21T10:34:38.698Z,20.24
2023-04-21T10:37:05.460Z,20.45
2023-04-21T10:39:35.955Z,20.19
2023-04-21T10:42:20.914Z,20.46
2023-04-21T10:45:02.519Z,19.68
2023-04-21T10:47:46.434Z,19.26
2023-04-21T10:50:17.964Z,18.17
2023-04-21T10:52:47.092Z,18.31
2023-04-21T10:55:16.956Z,17.21
2023-04-21T10:57:45.504Z,16.82
2023-04-21T11:00:16.327Z,17.86
2023-04-21T11:02:44.970Z,17.30
2023-04-21T11:05:12.400Z,17.92
2023-04-21T11:07:39.189Z,17.26
2023-04-21T11:10:11.073Z,16.50
2023-04-21T11:12:39.349Z,17.67
2023-04-21T11:15:11.886Z,18.11
2023-04-21T11:17:43.810Z,18.69
2023-04-21T11:20:10.835Z,17.62
2023-04-21T11:22:38.373Z,17.60
2023-04-21T11:25:05.648Z,17.33
2023-04-21T11:27:32.339Z,15.83
2023-04-21T11:29:59.066Z,16.96
2023-04-21T11:32:25.832Z,17.24
2023-04-21T11:34:52.623Z,18.46
2023-04-21T11:37:29.905Z,18.54
2023-04-21T11:40:00.952Z,18.15
2023-04-21T11:42:28.225Z,18.34
2023-04-21T11:44:56.504Z,18.39
2023-04-21T11:47:27.970Z,19.46
2023-04-21T11:49:56.858Z,21.44
2023-04-21T11:52:36.018Z,22.27
2023-04-21T11:55:05.628Z,25.12
2023-04-21T11:57:33.525Z,25.99
2023-04-21T12:00:02.095Z,26.83
2023-04-21T12:02:33.132Z,26.79
2023-04-21T12:05:10.026Z,27.82
2023-04-21T12:07:41.657Z,29.14
2023-04-21T12:10:11.745Z,29.12
2023-04-21T12:12:39.871Z,29.26
2023-04-21T12:15:08.242Z,30.36
2023-04-21T12:17:46.155Z,30.08
2023-04-21T12:20:16.291Z,29.12
2023-04-21T12:22:43.184Z,29.65
2023-04-21T12:25:09.916Z,31.74
2023-04-21T12:27:36.538Z,33.74
2023-04-21T12:30:04.049Z,31.97
2023-04-21T12:32:31.689Z,28.91
2023-04-21T12:34:58.395Z,27.72
2023-04-21T12:37:25.845Z,27.79
2023-04-21T12:39:52.510Z,27.64
2023-04-21T12:42:19.102Z,26.06
2023-04-21T12:44:45.897Z,26.52
2023-04-21T12:47:12.576Z,27.86
2023-04-21T12:49:39.325Z,27.27
2023-04-21T12:52:06.246Z,27.67
2023-04-21T12:54:33.831Z,27.16
2023-04-21T12:57:00.569Z,26.42
2023-04-21T12:59:27.315Z,25.88
2023-04-21T13:01:54.065Z,25.01
2023-04-21T13:04:21.761Z,25.47
2023-04-21T13:06:48.736Z,25.07
2023-04-21T13:09:15.793Z,24.93
2023-04-21T13:11:42.471Z,24.65
2023-04-21T13:14:09.087Z,26.13
2023-04-21T13:16:35.906Z,26.10
2023-04-21T13:19:02.605Z,26.47
2023-04-21T13:21:29.193Z,27.38
2023-04-21T13:23:57.301Z,27.29
2023-04-21T13:26:24.378Z,27.64
2023-04-21T13:28:51.495Z,27.14
2023-04-21T13:31:18.513Z,26.59
2023-04-21T13:33:45.378Z,26.12
2023-04-21T13:36:13.214Z,26.82
2023-04-21T13:38:40.670Z,26.48
2023-04-21T13:41:07.909Z,26.00
2023-04-21T13:43:34.980Z,25.95
2023-04-21T13:46:01.898Z,26.19
2023-04-21T13:48:29.731Z,26.99
2023-04-21T13:50:56.455Z,26.58
2023-04-21T13:53:23.184Z,26.69
2023-04-21T13:55:49.911Z,26.22
2023-04-21T13:58:17.107Z,25.97
2023-04-21T14:00:43.992Z,25.33
2023-04-21T14:03:11.617Z,25.73
2023-04-21T14:05:39.064Z,25.94
2023-04-21T14:08:06.158Z,26.38
2023-04-21T14:10:33.079Z,26.43
2023-04-21T14:13:00.256Z,26.35
2023-04-21T14:15:27.024Z,27.20
2023-04-21T14:17:53.994Z,27.69
2023-04-21T14:20:20.834Z,26.75
2023-04-21T14:22:47.661Z,25.88
2023-04-21T14:25:14.516Z,26.16
2023-04-21T14:27:41.335Z,27.33
2023-04-21T14:30:08.764Z,26.91
2023-04-21T14:32:35.748Z,26.86
2023-04-21T14:35:03.866Z,25.98
2023-04-21T14:37:30.765Z,26.43
2023-04-21T14:39:57.649Z,26.21
2023-04-21T14:42:27.243Z,26.23
2023-04-21T14:44:54.012Z,26.61
2023-04-21T14:47:21.796Z,26.81
2023-04-21T14:49:54.562Z,27.13
2023-04-21T14:52:24.508Z,27.28
2023-04-21T14:54:51.351Z,27.53
2023-04-21T14:57:21.133Z,29.20
2023-04-21T14:59:50.488Z,28.59
2023-04-21T15:02:17.494Z,28.97
2023-04-21T15:04:44.434Z,30.24
2023-04-21T15:07:11.401Z,31.27
2023-04-21T15:09:39.048Z,31.10
2023-04-21T15:12:06.176Z,31.38
2023-04-21T15:14:32.981Z,32.84
2023-04-21T15:16:59.768Z,33.29
2023-04-21T15:19:26.811Z,31.77
2023-04-21T15:21:53.561Z,31.11
2023-04-21T15:24:20.250Z,30.83
2023-04-21T15:26:46.956Z,30.98
2023-04-21T15:29:13.572Z,30.83
2023-04-21T15:31:40.637Z,31.48
2023-04-21T15:34:07.743Z,32.33
2023-04-21T15:36:34.473Z,32.69
2023-04-21T15:39:01.223Z,32.68
2023-04-21T15:41:29.454Z,32.78
2023-04-21T15:43:56.459Z,32.72
2023-04-21T15:46:23.318Z,36.60
2023-04-21T15:48:50.196Z,40.60
2023-04-21T15:51:18.858Z,41.56
2023-04-21T15:53:48.921Z,42.43
2023-04-21T15:56:16.736Z,41.93
2023-04-21T15:58:44.111Z,42.00
2023-04-21T16:01:11.126Z,41.12
2023-04-21T16:03:40.173Z,41.30
2023-04-21T16:06:07.722Z,41.45
2023-04-21T16:08:34.552Z,41.35
2023-04-21T16:11:01.454Z,40.49
2023-04-21T16:13:31.311Z,39.92
2023-04-21T16:15:58.047Z,39.33
2023-04-21T16:18:25.575Z,38.47
2023-04-21T16:20:52.702Z,38.72
2023-04-21T16:23:19.514Z,38.26
2023-04-21T16:25:46.188Z,38.58
2023-04-21T16:28:12.984Z,38.09
2023-04-21T16:30:43.226Z,37.96
2023-04-21T16:33:11.224Z,38.46
2023-04-21T16:35:38.827Z,38.20
2023-04-21T16:38:06.068Z,37.86
2023-04-21T16:40:33.011Z,37.99
2023-04-21T16:42:59.783Z,37.12
2023-04-21T16:45:28.004Z,38.44
2023-04-21T16:47:54.879Z,38.63
2023-04-21T16:50:21.833Z,37.85
2023-04-21T16:52:48.545Z,38.14
2023-04-21T16:55:15.205Z,37.92
2023-04-21T16:57:42.005Z,36.49
2023-04-21T17:00:09.406Z,37.75
2023-04-21T17:02:36.269Z,38.75
2023-04-21T17:05:04.019Z,38.77
2023-04-21T17:07:32.056Z,37.90
2023-04-21T17:09:58.927Z,37.68
2023-04-21T17:12:25.808Z,37.07
2023-04-21T17:14:52.499Z,36.77
2023-04-21T17:17:19.136Z,36.70
2023-04-21T17:19:45.842Z,37.14
2023-04-21T17:22:12.519Z,38.24
2023-04-21T17:24:51.903Z,38.47
2023-04-21T17:27:19.764Z,36.92
2023-04-21T17:29:47.028Z,36.73
2023-04-21T17:32:14.248Z,36.92
2023-04-21T17:34:41.009Z,37.51
2023-04-21T17:37:07.844Z,36.23
2023-04-21T17:39:34.549Z,36.31
2023-04-21T17:42:02.808Z,36.69
2023-04-21T17:44:29.985Z,36.07
2023-04-21T17:46:58.156Z,36.30
2023-04-21T17:49:25.352Z,36.58
2023-04-21T17:51:52.374Z,36.42
2023-04-21T17:54:19.114Z,36.19
2023-04-21T17:56:46.293Z,36.38
2023-04-21T17:59:13.876Z,36.90
2023-04-21T18:01:40.711Z,37.36
2023-04-21T18:04:07.897Z,36.84
2023-04-21T18:06:36.924Z,36.68
2023-04-21T18:09:07.190Z,37.01
2023-04-21T18:11:33.927Z,36.64
2023-04-21T18:14:00.538Z,37.71
2023-04-21T18:16:27.376Z,37.53
2023-04-21T18:18:54.022Z,37.73
2023-04-21T18:21:21.248Z,36.91
2023-04-21T18:23:48.104Z,36.91
2023-04-21T18:26:14.759Z,37.76
2023-04-21T18:28:41.557Z,36.98
2023-04-21T18:31:08.892Z,37.22
2023-04-21T18:33:35.804Z,37.41
2023-04-21T18:36:02.666Z,37.34
2023-04-21T18:38:29.390Z,37.53
2023-04-21T18:40:56.304Z,37.41
2023-04-21T18:43:22.992Z,37.08
2023-04-21T18:45:49.659Z,37.48
2023-04-21T18:48:16.321Z,37.69
2023-04-21T18:50:43.012Z,37.79
2023-04-21T18:53:09.722Z,38.71
2023-04-21T18:55:37.452Z,37.85
2023-04-21T18:58:04.320Z,37.85
2023-04-21T19:00:32.061Z,38.42
2023-04-21T19:03:02.845Z,39.06
2023-04-21T19:05:31.513Z,38.97
2023-04-21T19:07:58.794Z,39.02
2023-04-21T19:10:26.760Z,39.77
2023-04-21T19:12:54.072Z,39.09
2023-04-21T19:15:22.202Z,39.54
2023-04-21T19:17:48.962Z,39.59
2023-04-21T19:20:15.672Z,39.47
2023-04-21T19:22:42.372Z,40.27
2023-04-21T19:25:09.569Z,39.93
2023-04-21T19:27:36.635Z,40.01
2023-04-21T19:30:03.664Z,40.26
2023-04-21T19:32:31.392Z,40.32
2023-04-21T19:34:58.023Z,40.33
2023-04-21T19:37:26.322Z,40.77
2023-04-21T19:39:53.117Z,40.67
2023-04-21T19:42:19.748Z,41.86
2023-04-21T19:44:46.430Z,41.48
2023-04-21T19:47:13.151Z,41.52
2023-04-21T19:49:40.181Z,41.28
2023-04-21T19:52:07.019Z,42.16
2023-04-21T19:54:33.727Z,42.08
2023-04-21T19:57:01.593Z,42.44
2023-04-21T19:59:28.294Z,41.82
2023-04-21T20:01:54.995Z,42.07
2023-04-21T20:04:21.915Z,42.03
2023-04-21T20:06:48.852Z,43.07
2023-04-21T20:09:16.075Z,42.79
2023-04-21T20:11:43.285Z,42.73
2023-04-21T20:14:10.735Z,42.45
2023-04-21T20:16:37.704Z,42.89
2023-04-21T20:19:04.875Z,43.48
2023-04-21T20:21:33.230Z,44.17
2023-04-21T20:23:59.884Z,43.73
2023-04-21T20:26:26.626Z,43.54
2023-04-21T20:28:53.302Z,44.19
2023-04-21T20:31:23.531Z,44.49
2023-04-21T20:33:50.470Z,44.01
2023-04-21T20:36:17.700Z,43.97
2023-04-21T20:38:46.330Z,44.41
2023-04-21T20:41:13.429Z,43.97
2023-04-21T20:43:40.322Z,43.63
2023-04-21T20:46:08.734Z,43.39
2023-04-21T20:48:35.482Z,43.37
2023-04-21T20:51:02.626Z,43.69
2023-04-21T20:53:29.307Z,43.65
2023-04-21T20:55:56.056Z,43.74
2023-04-21T20:58:24.386Z,43.58
2023-04-21T21:00:51.264Z,44.52
2023-04-21T21:03:20.285Z,44.34
2023-04-21T21:05:47.576Z,43.94
2023-04-21T21:08:15.196Z,43.90
2023-04-21T21:10:42.114Z,44.12
2023-04-21T21:13:08.808Z,44.14
2023-04-21T21:15:35.488Z,44.10
2023-04-21T21:18:02.523Z,44.22
2023-04-21T21:20:29.201Z,44.17
2023-04-21T21:22:55.871Z,44.20
2023-04-21T21:25:22.504Z,43.98
2023-04-21T21:27:49.240Z,44.07
2023-04-21T21:30:16.014Z,44.47
2023-04-21T21:32:42.753Z,44.12
2023-04-21T21:35:10.328Z,44.37
2023-04-21T21:37:37.568Z,44.07
2023-04-21T21:40:04.715Z,44.10
2023-04-21T21:42:31.544Z,44.54
2023-04-21T21:44:58.265Z,44.32
2023-04-21T21:47:25.067Z,44.35
2023-04-21T21:49:54.870Z,44.49
2023-04-21T21:52:21.988Z,44.58
2023-04-21T21:54:48.613Z,44.67
2023-04-21T21:57:15.781Z,44.69
2023-04-21T21:59:42.470Z,45.02
2023-04-21T22:02:09.157Z,44.98
2023-04-21T22:04:35.968Z,45.19
2023-04-21T22:07:03.910Z,45.55
2023-04-21T22:09:30.819Z,45.46
2023-04-21T22:11:57.485Z,45.26
2023-04-21T22:14:24.388Z,45.59
2023-04-21T22:16:52.568Z,45.69
2023-04-21T22:19:19.614Z,45.61
2023-04-21T22:21:46.367Z,45.57
2023-04-21T22:24:13.146Z,45.76
2023-04-21T22:26:39.938Z,45.96
2023-04-21T22:29:06.948Z,46.04
2023-04-21T22:31:34.066Z,46.04
2023-04-21T22:34:00.818Z,45.94
2023-04-21T22:36:27.665Z,45.83
2023-04-21T22:38:54.420Z,46.06
2023-04-21T22:41:21.174Z,46.18
2023-04-21T22:43:48.011Z,45.88
2023-04-21T22:46:15.184Z,46.09
2023-04-21T22:48:41.953Z,46.17
2023-04-21T22:51:08.553Z,46.21
2023-04-21T22:53:35.486Z,46.53
2023-04-21T22:56:02.390Z,46.55
2023-04-21T22:58:29.171Z,46.45
2023-04-21T23:00:55.914Z,46.61
2023-04-21T23:03:23.460Z,46.71
2023-04-21T23:05:50.485Z,47.08
2023-04-21T23:08:17.150Z,47.56
2023-04-21T23:10:43.818Z,47.33
2023-04-21T23:13:10.695Z,47.42
2023-04-21T23:15:37.381Z,47.32
2023-04-21T23:18:04.349Z,47.46
2023-04-21T23:20:31.631Z,47.67
2023-04-21T23:22:58.679Z,47.65
2023-04-21T23:25:25.452Z,47.76
2023-04-21T23:27:52.230Z,47.59
2023-04-21T23:30:19.315Z,47.86
2023-04-21T23:32:46.646Z,47.90
2023-04-21T23:35:13.612Z,48.16
2023-04-21T23:37:40.458Z,48.34
2023-04-21T23:40:10.986Z,48.26
2023-04-21T23:42:38.736Z,48.42
2023-04-21T23:45:06.442Z,48.14
2023-04-21T23:47:33.825Z,47.94
2023-04-21T23:50:00.798Z,47.56
2023-04-21T23:52:27.601Z,47.61
2023-04-21T23:54:54.265Z,48.45
2023-04-21T23:57:21.266Z,48.41
2023-04-21T23:59:48.010Z,48.39
